sensor_id;sensor_type;location;lat;lon;timestamp;P1;durP1;ratioP1;P2;durP2;ratioP2
63050;SDS011;49136;47.416;19.402;2022-10-01T00:00:48;31.83;;;14.88;;
63050;SDS011;49136;47.416;19.402;2022-10-01T00:03:15;32.53;;;15.05;;
63050;SDS011;49136;47.416;19.402;2022-10-01T00:05:41;27.23;;;12.77;;
63050;SDS011;49136;47.416;19.402;2022-10-01T00:08:06;31.25;;;14.50;;
63050;SDS011;49136;47.416;19.402;2022-10-01T00:10:31;31.88;;;13.68;;
63050;SDS011;49136;47.416;19.402;2022-10-01T00:12:57;32.08;;;14.13;;
63050;SDS011;49136;47.416;19.402;2022-10-01T00:15:23;27.10;;;12.10;;
63050;SDS011;49136;47.416;19.402;2022-10-01T00:17:50;33.17;;;14.25;;
63050;SDS011;49136;47.416;19.402;2022-10-01T00:20:17;29.67;;;14.40;;
63050;SDS011;49136;47.416;19.402;2022-10-01T00:22:42;28.65;;;14.20;;
63050;SDS011;49136;47.416;19.402;2022-10-01T00:25:08;31.45;;;14.20;;
63050;SDS011;49136;47.416;19.402;2022-10-01T00:27:34;30.42;;;13.55;;
63050;SDS011;49136;47.416;19.402;2022-10-01T00:30:00;33.03;;;15.32;;
63050;SDS011;49136;47.416;19.402;2022-10-01T00:32:27;31.33;;;14.27;;
63050;SDS011;49136;47.416;19.402;2022-10-01T00:34:56;34.47;;;15.23;;
63050;SDS011;49136;47.416;19.402;2022-10-01T00:37:21;33.67;;;14.88;;
63050;SDS011;49136;47.416;19.402;2022-10-01T00:39:47;34.75;;;16.20;;
63050;SDS011;49136;47.416;19.402;2022-10-01T00:42:15;35.83;;;16.15;;
63050;SDS011;49136;47.416;19.402;2022-10-01T00:44:42;37.65;;;14.85;;
63050;SDS011;49136;47.416;19.402;2022-10-01T00:50:00;41.15;;;16.70;;
63050;SDS011;49136;47.416;19.402;2022-10-01T00:52:45;34.45;;;15.95;;
63050;SDS011;49136;47.416;19.402;2022-10-01T00:57:44;34.40;;;15.55;;
63050;SDS011;49136;47.416;19.402;2022-10-01T01:00:10;31.98;;;15.23;;
63050;SDS011;49136;47.416;19.402;2022-10-01T01:02:37;38.10;;;16.08;;
63050;SDS011;49136;47.416;19.402;2022-10-01T01:05:03;42.22;;;16.92;;
63050;SDS011;49136;47.416;19.402;2022-10-01T01:07:29;37.47;;;14.90;;
63050;SDS011;49136;47.416;19.402;2022-10-01T01:09:56;34.88;;;15.32;;
63050;SDS011;49136;47.416;19.402;2022-10-01T01:12:25;40.83;;;16.20;;
63050;SDS011;49136;47.416;19.402;2022-10-01T01:15:03;38.50;;;16.05;;
63050;SDS011;49136;47.416;19.402;2022-10-01T01:17:49;40.40;;;17.45;;
63050;SDS011;49136;47.416;19.402;2022-10-01T01:21:09;37.30;;;15.85;;
63050;SDS011;49136;47.416;19.402;2022-10-01T01:28:38;33.55;;;15.25;;
63050;SDS011;49136;47.416;19.402;2022-10-01T01:31:12;43.08;;;16.52;;
63050;SDS011;49136;47.416;19.402;2022-10-01T01:33:45;56.97;;;17.55;;
63050;SDS011;49136;47.416;19.402;2022-10-01T01:36:16;48.15;;;19.25;;
63050;SDS011;49136;47.416;19.402;2022-10-01T01:38:46;44.95;;;19.48;;
63050;SDS011;49136;47.416;19.402;2022-10-01T01:41:19;38.95;;;17.40;;
63050;SDS011;49136;47.416;19.402;2022-10-01T01:43:46;43.72;;;18.80;;
63050;SDS011;49136;47.416;19.402;2022-10-01T01:46:15;41.30;;;16.60;;
63050;SDS011;49136;47.416;19.402;2022-10-01T01:48:42;42.88;;;18.52;;
63050;SDS011;49136;47.416;19.402;2022-10-01T01:51:15;46.38;;;18.45;;
63050;SDS011;49136;47.416;19.402;2022-10-01T01:53:47;44.08;;;17.35;;
63050;SDS011;49136;47.416;19.402;2022-10-01T01:56:13;42.63;;;15.85;;
63050;SDS011;49136;47.416;19.402;2022-10-01T01:58:41;41.58;;;17.65;;
63050;SDS011;49136;47.416;19.402;2022-10-01T02:01:29;43.55;;;17.52;;
63050;SDS011;49136;47.416;19.402;2022-10-01T02:04:02;44.78;;;17.23;;
63050;SDS011;49136;47.416;19.402;2022-10-01T02:09:33;40.80;;;17.00;;
63050;SDS011;49136;47.416;19.402;2022-10-01T02:12:08;44.95;;;17.33;;
63050;SDS011;49136;47.416;19.402;2022-10-01T02:15:04;43.53;;;18.67;;
63050;SDS011;49136;47.416;19.402;2022-10-01T02:17:58;43.45;;;17.48;;
63050;SDS011;49136;47.416;19.402;2022-10-01T02:20:34;40.42;;;17.52;;
63050;SDS011;49136;47.416;19.402;2022-10-01T02:23:17;37.63;;;16.83;;
63050;SDS011;49136;47.416;19.402;2022-10-01T02:25:50;37.20;;;15.60;;
63050;SDS011;49136;47.416;19.402;2022-10-01T02:28:22;52.63;;;17.45;;
63050;SDS011;49136;47.416;19.402;2022-10-01T02:30:51;40.58;;;17.42;;
63050;SDS011;49136;47.416;19.402;2022-10-01T02:33:21;38.83;;;15.43;;
63050;SDS011;49136;47.416;19.402;2022-10-01T02:35:51;42.45;;;17.20;;
63050;SDS011;49136;47.416;19.402;2022-10-01T02:38:19;49.38;;;17.67;;
63050;SDS011;49136;47.416;19.402;2022-10-01T02:40:46;40.63;;;15.82;;
63050;SDS011;49136;47.416;19.402;2022-10-01T02:43:15;38.63;;;16.17;;
63050;SDS011;49136;47.416;19.402;2022-10-01T02:45:44;49.08;;;17.98;;
63050;SDS011;49136;47.416;19.402;2022-10-01T02:48:13;38.42;;;15.52;;
63050;SDS011;49136;47.416;19.402;2022-10-01T02:53:40;40.13;;;17.17;;
63050;SDS011;49136;47.416;19.402;2022-10-01T02:56:11;42.72;;;17.27;;
63050;SDS011;49136;47.416;19.402;2022-10-01T02:58:38;40.47;;;16.15;;
63050;SDS011;49136;47.416;19.402;2022-10-01T03:01:06;42.53;;;17.38;;
63050;SDS011;49136;47.416;19.402;2022-10-01T03:03:31;41.13;;;16.73;;
63050;SDS011;49136;47.416;19.402;2022-10-01T03:05:57;40.40;;;17.52;;
63050;SDS011;49136;47.416;19.402;2022-10-01T03:08:22;46.75;;;17.25;;
63050;SDS011;49136;47.416;19.402;2022-10-01T03:10:47;47.30;;;17.13;;
63050;SDS011;49136;47.416;19.402;2022-10-01T03:13:14;40.83;;;17.00;;
63050;SDS011;49136;47.416;19.402;2022-10-01T03:15:41;43.45;;;16.55;;
63050;SDS011;49136;47.416;19.402;2022-10-01T03:18:06;41.03;;;16.45;;
63050;SDS011;49136;47.416;19.402;2022-10-01T03:20:31;46.67;;;18.20;;
63050;SDS011;49136;47.416;19.402;2022-10-01T03:22:57;47.42;;;18.00;;
63050;SDS011;49136;47.416;19.402;2022-10-01T03:25:22;51.10;;;19.15;;
63050;SDS011;49136;47.416;19.402;2022-10-01T03:27:47;56.75;;;19.98;;
63050;SDS011;49136;47.416;19.402;2022-10-01T03:30:13;51.20;;;19.20;;
63050;SDS011;49136;47.416;19.402;2022-10-01T03:32:39;51.67;;;19.30;;
63050;SDS011;49136;47.416;19.402;2022-10-01T03:35:04;56.72;;;21.20;;
63050;SDS011;49136;47.416;19.402;2022-10-01T03:37:30;48.30;;;18.05;;
63050;SDS011;49136;47.416;19.402;2022-10-01T03:39:55;51.05;;;18.83;;
63050;SDS011;49136;47.416;19.402;2022-10-01T03:42:21;53.13;;;19.25;;
63050;SDS011;49136;47.416;19.402;2022-10-01T03:44:46;53.92;;;19.70;;
63050;SDS011;49136;47.416;19.402;2022-10-01T03:47:12;49.45;;;18.90;;
63050;SDS011;49136;47.416;19.402;2022-10-01T03:49:38;64.00;;;23.70;;
63050;SDS011;49136;47.416;19.402;2022-10-01T03:52:03;56.72;;;21.08;;
63050;SDS011;49136;47.416;19.402;2022-10-01T03:54:30;60.78;;;21.50;;
63050;SDS011;49136;47.416;19.402;2022-10-01T03:56:56;52.40;;;19.13;;
63050;SDS011;49136;47.416;19.402;2022-10-01T03:59:21;56.03;;;21.33;;
63050;SDS011;49136;47.416;19.402;2022-10-01T04:01:47;58.65;;;21.67;;
63050;SDS011;49136;47.416;19.402;2022-10-01T04:04:12;57.88;;;20.90;;
63050;SDS011;49136;47.416;19.402;2022-10-01T04:06:38;58.33;;;21.05;;
63050;SDS011;49136;47.416;19.402;2022-10-01T04:09:04;56.50;;;20.63;;
63050;SDS011;49136;47.416;19.402;2022-10-01T04:11:29;56.92;;;20.42;;
63050;SDS011;49136;47.416;19.402;2022-10-01T04:13:55;59.30;;;21.88;;
63050;SDS011;49136;47.416;19.402;2022-10-01T04:16:22;52.20;;;19.02;;
63050;SDS011;49136;47.416;19.402;2022-10-01T04:18:48;61.45;;;23.27;;
63050;SDS011;49136;47.416;19.402;2022-10-01T04:21:14;57.47;;;20.38;;
63050;SDS011;49136;47.416;19.402;2022-10-01T04:23:39;61.95;;;22.15;;
63050;SDS011;49136;47.416;19.402;2022-10-01T04:26:05;62.97;;;21.58;;
63050;SDS011;49136;47.416;19.402;2022-10-01T04:28:31;60.17;;;22.08;;
63050;SDS011;49136;47.416;19.402;2022-10-01T04:30:56;65.60;;;21.00;;
63050;SDS011;49136;47.416;19.402;2022-10-01T04:33:40;69.30;;;23.30;;
63050;SDS011;49136;47.416;19.402;2022-10-01T04:36:06;55.53;;;21.83;;
63050;SDS011;49136;47.416;19.402;2022-10-01T04:38:32;58.58;;;22.60;;
63050;SDS011;49136;47.416;19.402;2022-10-01T04:40:58;58.58;;;21.00;;
63050;SDS011;49136;47.416;19.402;2022-10-01T04:43:23;65.85;;;25.00;;
63050;SDS011;49136;47.416;19.402;2022-10-01T04:45:48;67.40;;;24.83;;
63050;SDS011;49136;47.416;19.402;2022-10-01T04:48:14;60.75;;;23.02;;
63050;SDS011;49136;47.416;19.402;2022-10-01T04:50:39;59.25;;;23.08;;
63050;SDS011;49136;47.416;19.402;2022-10-01T04:53:05;71.38;;;22.15;;
63050;SDS011;49136;47.416;19.402;2022-10-01T04:55:30;65.28;;;23.08;;
63050;SDS011;49136;47.416;19.402;2022-10-01T04:57:55;78.63;;;22.70;;
63050;SDS011;49136;47.416;19.402;2022-10-01T05:00:21;70.63;;;24.08;;
63050;SDS011;49136;47.416;19.402;2022-10-01T05:02:50;58.20;;;20.60;;
63050;SDS011;49136;47.416;19.402;2022-10-01T05:05:17;62.10;;;22.02;;
63050;SDS011;49136;47.416;19.402;2022-10-01T05:07:45;53.65;;;21.08;;
63050;SDS011;49136;47.416;19.402;2022-10-01T05:10:12;66.57;;;21.73;;
63050;SDS011;49136;47.416;19.402;2022-10-01T05:12:39;56.70;;;21.33;;
63050;SDS011;49136;47.416;19.402;2022-10-01T05:15:05;52.05;;;20.25;;
63050;SDS011;49136;47.416;19.402;2022-10-01T05:17:31;51.65;;;19.42;;
63050;SDS011;49136;47.416;19.402;2022-10-01T05:19:58;58.47;;;20.95;;
63050;SDS011;49136;47.416;19.402;2022-10-01T05:22:24;46.55;;;18.75;;
63050;SDS011;49136;47.416;19.402;2022-10-01T05:24:49;52.83;;;19.15;;
63050;SDS011;49136;47.416;19.402;2022-10-01T05:27:15;51.58;;;18.92;;
63050;SDS011;49136;47.416;19.402;2022-10-01T05:29:41;45.75;;;18.83;;
63050;SDS011;49136;47.416;19.402;2022-10-01T05:32:09;40.55;;;16.42;;
63050;SDS011;49136;47.416;19.402;2022-10-01T05:34:36;46.72;;;16.98;;
63050;SDS011;49136;47.416;19.402;2022-10-01T05:37:02;37.25;;;14.82;;
63050;SDS011;49136;47.416;19.402;2022-10-01T05:39:28;52.63;;;18.08;;
63050;SDS011;49136;47.416;19.402;2022-10-01T05:41:54;49.67;;;17.73;;
63050;SDS011;49136;47.416;19.402;2022-10-01T05:44:21;48.35;;;17.90;;
63050;SDS011;49136;47.416;19.402;2022-10-01T05:46:47;57.08;;;19.23;;
63050;SDS011;49136;47.416;19.402;2022-10-01T05:49:13;51.50;;;18.40;;
63050;SDS011;49136;47.416;19.402;2022-10-01T05:51:39;51.38;;;17.88;;
63050;SDS011;49136;47.416;19.402;2022-10-01T05:54:04;87.43;;;28.70;;
63050;SDS011;49136;47.416;19.402;2022-10-01T05:56:30;57.03;;;21.17;;
63050;SDS011;49136;47.416;19.402;2022-10-01T05:58:55;54.15;;;20.95;;
63050;SDS011;49136;47.416;19.402;2022-10-01T06:01:20;58.63;;;21.05;;
63050;SDS011;49136;47.416;19.402;2022-10-01T06:03:49;56.92;;;21.75;;
63050;SDS011;49136;47.416;19.402;2022-10-01T06:06:20;46.72;;;18.38;;
63050;SDS011;49136;47.416;19.402;2022-10-01T06:08:46;50.90;;;17.58;;
63050;SDS011;49136;47.416;19.402;2022-10-01T06:11:12;51.45;;;20.05;;
63050;SDS011;49136;47.416;19.402;2022-10-01T06:13:37;47.05;;;18.83;;
63050;SDS011;49136;47.416;19.402;2022-10-01T06:16:13;47.40;;;18.60;;
63050;SDS011;49136;47.416;19.402;2022-10-01T06:18:39;55.75;;;20.83;;
63050;SDS011;49136;47.416;19.402;2022-10-01T06:21:05;59.38;;;22.50;;
63050;SDS011;49136;47.416;19.402;2022-10-01T06:23:31;49.67;;;18.83;;
63050;SDS011;49136;47.416;19.402;2022-10-01T06:26:01;50.72;;;18.35;;
63050;SDS011;49136;47.416;19.402;2022-10-01T06:28:29;47.05;;;17.67;;
63050;SDS011;49136;47.416;19.402;2022-10-01T06:31:01;49.85;;;18.60;;
63050;SDS011;49136;47.416;19.402;2022-10-01T06:33:27;47.05;;;19.60;;
63050;SDS011;49136;47.416;19.402;2022-10-01T06:35:53;53.17;;;19.67;;
63050;SDS011;49136;47.416;19.402;2022-10-01T06:38:19;63.05;;;19.80;;
63050;SDS011;49136;47.416;19.402;2022-10-01T06:40:52;49.13;;;18.42;;
63050;SDS011;49136;47.416;19.402;2022-10-01T06:43:19;56.05;;;18.65;;
63050;SDS011;49136;47.416;19.402;2022-10-01T06:45:46;57.58;;;20.00;;
63050;SDS011;49136;47.416;19.402;2022-10-01T06:48:12;52.78;;;18.45;;
63050;SDS011;49136;47.416;19.402;2022-10-01T06:50:39;49.25;;;18.92;;
63050;SDS011;49136;47.416;19.402;2022-10-01T06:53:05;43.03;;;15.27;;
63050;SDS011;49136;47.416;19.402;2022-10-01T06:55:32;36.83;;;14.32;;
63050;SDS011;49136;47.416;19.402;2022-10-01T06:58:02;30.88;;;12.55;;
63050;SDS011;49136;47.416;19.402;2022-10-01T07:00:30;34.53;;;12.82;;
63050;SDS011;49136;47.416;19.402;2022-10-01T07:02:57;36.53;;;14.43;;
63050;SDS011;49136;47.416;19.402;2022-10-01T07:05:23;27.23;;;12.70;;
63050;SDS011;49136;47.416;19.402;2022-10-01T07:07:49;30.58;;;12.98;;
63050;SDS011;49136;47.416;19.402;2022-10-01T07:10:16;34.22;;;15.18;;
63050;SDS011;49136;47.416;19.402;2022-10-01T07:12:46;32.72;;;14.10;;
63050;SDS011;49136;47.416;19.402;2022-10-01T07:15:18;36.90;;;15.40;;
63050;SDS011;49136;47.416;19.402;2022-10-01T07:17:49;34.65;;;14.85;;
63050;SDS011;49136;47.416;19.402;2022-10-01T07:20:17;34.75;;;16.00;;
63050;SDS011;49136;47.416;19.402;2022-10-01T07:22:44;31.92;;;13.90;;
63050;SDS011;49136;47.416;19.402;2022-10-01T07:25:10;31.00;;;13.95;;
63050;SDS011;49136;47.416;19.402;2022-10-01T07:27:36;28.60;;;13.88;;
63050;SDS011;49136;47.416;19.402;2022-10-01T07:30:01;31.35;;;14.60;;
63050;SDS011;49136;47.416;19.402;2022-10-01T07:32:28;36.95;;;15.32;;
63050;SDS011;49136;47.416;19.402;2022-10-01T07:34:55;28.55;;;14.13;;
63050;SDS011;49136;47.416;19.402;2022-10-01T07:37:21;33.35;;;13.98;;
63050;SDS011;49136;47.416;19.402;2022-10-01T07:39:47;33.60;;;14.77;;
63050;SDS011;49136;47.416;19.402;2022-10-01T07:42:12;55.05;;;16.13;;
63050;SDS011;49136;47.416;19.402;2022-10-01T07:44:38;35.67;;;15.80;;
63050;SDS011;49136;47.416;19.402;2022-10-01T07:47:03;31.50;;;13.25;;
63050;SDS011;49136;47.416;19.402;2022-10-01T07:49:28;29.02;;;13.15;;
63050;SDS011;49136;47.416;19.402;2022-10-01T07:51:54;31.73;;;14.32;;
63050;SDS011;49136;47.416;19.402;2022-10-01T07:54:23;28.30;;;12.82;;
63050;SDS011;49136;47.416;19.402;2022-10-01T07:56:49;29.25;;;13.75;;
63050;SDS011;49136;47.416;19.402;2022-10-01T07:59:20;28.98;;;12.77;;
63050;SDS011;49136;47.416;19.402;2022-10-01T08:01:49;29.77;;;13.57;;
63050;SDS011;49136;47.416;19.402;2022-10-01T08:04:15;25.48;;;14.32;;
63050;SDS011;49136;47.416;19.402;2022-10-01T08:07:00;28.33;;;16.02;;
63050;SDS011;49136;47.416;19.402;2022-10-01T08:09:26;30.38;;;15.77;;
63050;SDS011;49136;47.416;19.402;2022-10-01T08:11:51;24.73;;;12.80;;
63050;SDS011;49136;47.416;19.402;2022-10-01T08:14:16;32.55;;;14.65;;
63050;SDS011;49136;47.416;19.402;2022-10-01T08:16:43;32.13;;;14.85;;
63050;SDS011;49136;47.416;19.402;2022-10-01T08:19:08;26.73;;;12.35;;
63050;SDS011;49136;47.416;19.402;2022-10-01T08:21:34;27.55;;;12.55;;
63050;SDS011;49136;47.416;19.402;2022-10-01T08:24:00;25.08;;;12.20;;
63050;SDS011;49136;47.416;19.402;2022-10-01T08:26:27;25.85;;;12.15;;
63050;SDS011;49136;47.416;19.402;2022-10-01T08:28:52;24.73;;;12.02;;
63050;SDS011;49136;47.416;19.402;2022-10-01T08:31:18;24.73;;;10.93;;
63050;SDS011;49136;47.416;19.402;2022-10-01T08:33:43;21.23;;;12.02;;
63050;SDS011;49136;47.416;19.402;2022-10-01T08:36:09;23.10;;;13.63;;
63050;SDS011;49136;47.416;19.402;2022-10-01T08:38:34;20.10;;;12.35;;
63050;SDS011;49136;47.416;19.402;2022-10-01T08:41:01;20.23;;;12.57;;
63050;SDS011;49136;47.416;19.402;2022-10-01T08:43:41;22.57;;;11.27;;
63050;SDS011;49136;47.416;19.402;2022-10-01T08:46:15;21.10;;;10.20;;
63050;SDS011;49136;47.416;19.402;2022-10-01T08:53:54;21.98;;;11.95;;
63050;SDS011;49136;47.416;19.402;2022-10-01T08:56:29;25.13;;;12.35;;
63050;SDS011;49136;47.416;19.402;2022-10-01T08:58:59;27.65;;;13.30;;
63050;SDS011;49136;47.416;19.402;2022-10-01T09:01:33;28.33;;;13.27;;
63050;SDS011;49136;47.416;19.402;2022-10-01T09:03:59;29.63;;;13.00;;
63050;SDS011;49136;47.416;19.402;2022-10-01T09:06:25;27.80;;;14.43;;
63050;SDS011;49136;47.416;19.402;2022-10-01T09:11:26;26.88;;;14.88;;
63050;SDS011;49136;47.416;19.402;2022-10-01T09:14:09;21.77;;;12.70;;
63050;SDS011;49136;47.416;19.402;2022-10-01T09:22:13;28.33;;;14.27;;
63050;SDS011;49136;47.416;19.402;2022-10-01T09:24:53;24.08;;;11.95;;
63050;SDS011;49136;47.416;19.402;2022-10-01T09:27:36;20.00;;;11.80;;
63050;SDS011;49136;47.416;19.402;2022-10-01T09:30:04;24.52;;;12.40;;
63050;SDS011;49136;47.416;19.402;2022-10-01T09:32:35;22.75;;;12.13;;
63050;SDS011;49136;47.416;19.402;2022-10-01T09:35:09;19.85;;;11.93;;
63050;SDS011;49136;47.416;19.402;2022-10-01T09:37:53;24.30;;;14.50;;
63050;SDS011;49136;47.416;19.402;2022-10-01T09:42:50;46.03;;;22.85;;
63050;SDS011;49136;47.416;19.402;2022-10-01T09:45:17;29.60;;;15.88;;
63050;SDS011;49136;47.416;19.402;2022-10-01T09:47:44;58.15;;;25.63;;
63050;SDS011;49136;47.416;19.402;2022-10-01T09:50:15;42.42;;;23.92;;
63050;SDS011;49136;47.416;19.402;2022-10-01T09:52:45;34.38;;;17.55;;
63050;SDS011;49136;47.416;19.402;2022-10-01T09:55:19;32.97;;;18.15;;
63050;SDS011;49136;47.416;19.402;2022-10-01T10:00:20;21.85;;;11.85;;
63050;SDS011;49136;47.416;19.402;2022-10-01T10:02:49;50.92;;;25.67;;
63050;SDS011;49136;47.416;19.402;2022-10-01T10:05:16;32.85;;;19.75;;
63050;SDS011;49136;47.416;19.402;2022-10-01T10:08:08;18.10;;;10.48;;
63050;SDS011;49136;47.416;19.402;2022-10-01T10:10:38;17.67;;;9.95;;
63050;SDS011;49136;47.416;19.402;2022-10-01T10:13:16;24.05;;;10.55;;
63050;SDS011;49136;47.416;19.402;2022-10-01T10:15:55;22.38;;;11.75;;
63050;SDS011;49136;47.416;19.402;2022-10-01T10:18:32;15.40;;;9.27;;
63050;SDS011;49136;47.416;19.402;2022-10-01T10:21:00;17.55;;;9.35;;
63050;SDS011;49136;47.416;19.402;2022-10-01T10:23:31;17.90;;;8.85;;
63050;SDS011;49136;47.416;19.402;2022-10-01T10:26:02;10.82;;;6.28;;
63050;SDS011;49136;47.416;19.402;2022-10-01T10:28:39;10.82;;;6.63;;
63050;SDS011;49136;47.416;19.402;2022-10-01T10:31:25;11.40;;;6.88;;
63050;SDS011;49136;47.416;19.402;2022-10-01T10:36:37;9.63;;;4.93;;
63050;SDS011;49136;47.416;19.402;2022-10-01T10:39:04;8.07;;;4.35;;
63050;SDS011;49136;47.416;19.402;2022-10-01T10:41:31;9.48;;;5.28;;
63050;SDS011;49136;47.416;19.402;2022-10-01T10:44:00;11.80;;;6.13;;
63050;SDS011;49136;47.416;19.402;2022-10-01T10:46:32;9.85;;;5.53;;
63050;SDS011;49136;47.416;19.402;2022-10-01T10:49:23;10.25;;;5.10;;
63050;SDS011;49136;47.416;19.402;2022-10-01T10:51:54;10.95;;;5.38;;
63050;SDS011;49136;47.416;19.402;2022-10-01T10:54:26;34.42;;;17.88;;
63050;SDS011;49136;47.416;19.402;2022-10-01T10:57:18;18.48;;;8.60;;
63050;SDS011;49136;47.416;19.402;2022-10-01T10:59:59;23.80;;;9.27;;
63050;SDS011;49136;47.416;19.402;2022-10-01T11:02:27;16.63;;;9.23;;
63050;SDS011;49136;47.416;19.402;2022-10-01T11:04:54;14.65;;;8.55;;
63050;SDS011;49136;47.416;19.402;2022-10-01T11:07:23;17.90;;;9.32;;
63050;SDS011;49136;47.416;19.402;2022-10-01T11:23:03;16.42;;;9.13;;
63050;SDS011;49136;47.416;19.402;2022-10-01T11:28:57;20.05;;;10.27;;
63050;SDS011;49136;47.416;19.402;2022-10-01T11:31:46;20.70;;;10.15;;
63050;SDS011;49136;47.416;19.402;2022-10-01T11:39:58;9.35;;;5.55;;
63050;SDS011;49136;47.416;19.402;2022-10-01T11:42:33;11.40;;;6.07;;
63050;SDS011;49136;47.416;19.402;2022-10-01T11:45:01;10.02;;;5.80;;
63050;SDS011;49136;47.416;19.402;2022-10-01T11:47:59;11.25;;;5.72;;
63050;SDS011;49136;47.416;19.402;2022-10-01T11:50:26;8.38;;;4.97;;
63050;SDS011;49136;47.416;19.402;2022-10-01T11:52:56;10.18;;;5.35;;
63050;SDS011;49136;47.416;19.402;2022-10-01T11:55:26;24.80;;;5.50;;
63050;SDS011;49136;47.416;19.402;2022-10-01T11:58:34;15.23;;;6.18;;
63050;SDS011;49136;47.416;19.402;2022-10-01T12:01:29;7.82;;;5.75;;
63050;SDS011;49136;47.416;19.402;2022-10-01T12:06:54;10.90;;;6.03;;
63050;SDS011;49136;47.416;19.402;2022-10-01T12:12:03;9.35;;;5.97;;
63050;SDS011;49136;47.416;19.402;2022-10-01T12:14:35;8.13;;;5.60;;
63050;SDS011;49136;47.416;19.402;2022-10-01T12:19:49;13.00;;;5.50;;
63050;SDS011;49136;47.416;19.402;2022-10-01T12:24:57;9.70;;;5.10;;
63050;SDS011;49136;47.416;19.402;2022-10-01T12:27:41;8.60;;;5.13;;
63050;SDS011;49136;47.416;19.402;2022-10-01T12:38:47;12.90;;;6.03;;
63050;SDS011;49136;47.416;19.402;2022-10-01T12:49:24;10.32;;;5.78;;
63050;SDS011;49136;47.416;19.402;2022-10-01T12:52:00;7.28;;;4.55;;
63050;SDS011;49136;47.416;19.402;2022-10-01T12:54:40;9.05;;;4.78;;
63050;SDS011;49136;47.416;19.402;2022-10-01T12:57:14;5.97;;;4.47;;
63050;SDS011;49136;47.416;19.402;2022-10-01T12:59:59;8.90;;;4.95;;
63050;SDS011;49136;47.416;19.402;2022-10-01T13:02:57;7.32;;;4.97;;
63050;SDS011;49136;47.416;19.402;2022-10-01T13:13:31;13.35;;;5.20;;
63050;SDS011;49136;47.416;19.402;2022-10-01T13:16:21;6.80;;;4.72;;
63050;SDS011;49136;47.416;19.402;2022-10-01T13:35:28;9.30;;;5.78;;
63050;SDS011;49136;47.416;19.402;2022-10-01T13:38:00;10.63;;;5.60;;
63050;SDS011;49136;47.416;19.402;2022-10-01T13:40:27;13.95;;;5.28;;
63050;SDS011;49136;47.416;19.402;2022-10-01T13:43:01;10.55;;;5.22;;
63050;SDS011;49136;47.416;19.402;2022-10-01T13:45:51;8.07;;;5.63;;
63050;SDS011;49136;47.416;19.402;2022-10-01T13:53:21;10.27;;;5.28;;
63050;SDS011;49136;47.416;19.402;2022-10-01T13:55:49;9.85;;;5.55;;
63050;SDS011;49136;47.416;19.402;2022-10-01T13:58:30;11.45;;;5.47;;
63050;SDS011;49136;47.416;19.402;2022-10-01T14:01:22;10.00;;;5.57;;
63050;SDS011;49136;47.416;19.402;2022-10-01T14:03:55;7.65;;;4.55;;
63050;SDS011;49136;47.416;19.402;2022-10-01T14:09:18;13.38;;;7.00;;
63050;SDS011;49136;47.416;19.402;2022-10-01T14:11:51;12.90;;;6.97;;
63050;SDS011;49136;47.416;19.402;2022-10-01T14:14:57;9.43;;;6.18;;
63050;SDS011;49136;47.416;19.402;2022-10-01T14:17:43;18.92;;;8.40;;
63050;SDS011;49136;47.416;19.402;2022-10-01T14:20:17;12.55;;;8.68;;
63050;SDS011;49136;47.416;19.402;2022-10-01T14:25:38;28.85;;;16.58;;
63050;SDS011;49136;47.416;19.402;2022-10-01T14:28:45;27.83;;;9.48;;
63050;SDS011;49136;47.416;19.402;2022-10-01T14:34:42;14.27;;;7.85;;
63050;SDS011;49136;47.416;19.402;2022-10-01T14:37:12;14.68;;;7.68;;
63050;SDS011;49136;47.416;19.402;2022-10-01T14:39:41;15.90;;;8.32;;
63050;SDS011;49136;47.416;19.402;2022-10-01T14:42:07;16.63;;;7.97;;
63050;SDS011;49136;47.416;19.402;2022-10-01T14:44:39;27.98;;;9.77;;
63050;SDS011;49136;47.416;19.402;2022-10-01T14:49:52;24.02;;;9.77;;
63050;SDS011;49136;47.416;19.402;2022-10-01T14:52:22;17.98;;;9.43;;
63050;SDS011;49136;47.416;19.402;2022-10-01T14:54:52;16.45;;;9.63;;
63050;SDS011;49136;47.416;19.402;2022-10-01T14:57:25;28.83;;;13.80;;
63050;SDS011;49136;47.416;19.402;2022-10-01T14:59:58;24.50;;;13.75;;
63050;SDS011;49136;47.416;19.402;2022-10-01T15:02:26;24.90;;;12.05;;
63050;SDS011;49136;47.416;19.402;2022-10-01T15:04:54;22.15;;;12.30;;
63050;SDS011;49136;47.416;19.402;2022-10-01T15:07:20;22.45;;;14.38;;
63050;SDS011;49136;47.416;19.402;2022-10-01T15:09:47;45.72;;;22.67;;
63050;SDS011;49136;47.416;19.402;2022-10-01T15:12:13;36.67;;;22.63;;
63050;SDS011;49136;47.416;19.402;2022-10-01T15:14:41;33.38;;;17.50;;
63050;SDS011;49136;47.416;19.402;2022-10-01T15:17:11;31.65;;;18.52;;
63050;SDS011;49136;47.416;19.402;2022-10-01T15:19:49;40.45;;;21.52;;
63050;SDS011;49136;47.416;19.402;2022-10-01T15:22:22;28.23;;;14.93;;
63050;SDS011;49136;47.416;19.402;2022-10-01T15:24:50;28.92;;;14.88;;
63050;SDS011;49136;47.416;19.402;2022-10-01T15:27:18;30.30;;;15.38;;
63050;SDS011;49136;47.416;19.402;2022-10-01T15:29:45;35.90;;;15.20;;
63050;SDS011;49136;47.416;19.402;2022-10-01T15:32:16;31.38;;;14.13;;
63050;SDS011;49136;47.416;19.402;2022-10-01T15:34:50;29.10;;;16.35;;
63050;SDS011;49136;47.416;19.402;2022-10-01T15:37:29;30.98;;;15.30;;
63050;SDS011;49136;47.416;19.402;2022-10-01T15:39:57;31.60;;;16.13;;
63050;SDS011;49136;47.416;19.402;2022-10-01T15:42:25;26.88;;;14.05;;
63050;SDS011;49136;47.416;19.402;2022-10-01T15:47:33;37.47;;;17.13;;
63050;SDS011;49136;47.416;19.402;2022-10-01T15:52:36;30.15;;;15.45;;
63050;SDS011;49136;47.416;19.402;2022-10-01T15:57:52;33.97;;;16.15;;
63050;SDS011;49136;47.416;19.402;2022-10-01T16:00:24;30.35;;;15.25;;
63050;SDS011;49136;47.416;19.402;2022-10-01T16:02:51;35.30;;;15.68;;
63050;SDS011;49136;47.416;19.402;2022-10-01T16:05:19;35.65;;;16.25;;
63050;SDS011;49136;47.416;19.402;2022-10-01T16:07:51;34.25;;;14.43;;
63050;SDS011;49136;47.416;19.402;2022-10-01T16:18:34;25.08;;;12.27;;
63050;SDS011;49136;47.416;19.402;2022-10-01T16:21:01;27.25;;;13.82;;
63050;SDS011;49136;47.416;19.402;2022-10-01T16:23:41;30.23;;;13.93;;
63050;SDS011;49136;47.416;19.402;2022-10-01T16:26:50;33.13;;;14.60;;
63050;SDS011;49136;47.416;19.402;2022-10-01T16:31:42;32.53;;;14.93;;
63050;SDS011;49136;47.416;19.402;2022-10-01T16:34:13;48.88;;;25.45;;
63050;SDS011;49136;47.416;19.402;2022-10-01T16:36:40;36.22;;;18.30;;
63050;SDS011;49136;47.416;19.402;2022-10-01T16:39:05;40.63;;;19.23;;
63050;SDS011;49136;47.416;19.402;2022-10-01T16:41:31;28.98;;;13.88;;
63050;SDS011;49136;47.416;19.402;2022-10-01T16:44:00;30.63;;;12.68;;
63050;SDS011;49136;47.416;19.402;2022-10-01T16:46:27;31.05;;;11.98;;
63050;SDS011;49136;47.416;19.402;2022-10-01T16:48:52;19.98;;;10.23;;
63050;SDS011;49136;47.416;19.402;2022-10-01T16:51:18;22.23;;;9.90;;
63050;SDS011;49136;47.416;19.402;2022-10-01T16:53:45;18.33;;;8.93;;
63050;SDS011;49136;47.416;19.402;2022-10-01T16:56:11;28.20;;;10.65;;